• Join FlightAware (Why Join?)
  • Login
  • US Flag 
04:56AM EST


 

Airport Tracker/Info


-or-


 

Live Flight TrackerFlight Track Log ✈ EGC695 ✈ 02-Jul-2013 ✈ KTOL - KEYE

Flight Track Log - Related Links

Times and Time Zones

All times are in EDT time to prevent confusion due to time zone crossing. See the EGC695 flight status page for this flight to view local times or setup timezone preferences in your user account.

Time Position Orientation Groundspeed Altitude Reporting Facility
EDT Latitude Longitude Course Direction KTS MPH feet Rate Location/Type
02:51PM 41.5547 -83.7050 228° Southwest 254 292 4,400  Level Cleveland Center
02:52PM 41.4992 -83.7522 212° Southwest 253 291 7,300 2,700 Climbing Cleveland Center
02:53PM 41.4514 -83.8219 228° Southwest 253 291 9,800 2,520 Climbing Cleveland Center
02:54PM 41.4011 -83.8997 229° Southwest 264 304 12,400 2,580 Climbing Cleveland Center
02:55PM 41.3508 -83.9772 229° Southwest 279 321 15,000 2,700 Climbing Cleveland Center
02:56PM 41.2384 -84.3179 228° Southwest  Level Estimated
02:56PM 41.2983 -84.0603 230° Southwest 279 321 17,800  Level Cleveland Center
02:57PM 41.2403 -84.1603 232° Southwest 284 327 20,000 900 Climbing Chicago Center
02:58PM 41.2131 -84.2739 252° West 322 371 20,000  Level Chicago Center
02:59PM 41.1828 -84.3897 251° West 331 381 20,000  Level Chicago Center
03:00PM 41.1539 -84.5036 251° West 327 376 20,000  Level Chicago Center
03:01PM 41.1189 -84.6428 252° West 330 380 20,000  Level Chicago Center
03:03PM 41.0897 -84.7589 252° West 332 382 20,000  Level Chicago Center
03:04PM 41.0592 -84.8753 251° West 333 383 20,000  Level Chicago Center
03:05PM 41.0297 -84.9914 251° West 333 383 20,000  Level Chicago Center
03:06PM 40.9997 -85.1069 251° West 332 382 20,000  Level Chicago Center
03:07PM 40.9492 -85.2050 236° Southwest 330 380 20,000  Level Chicago Center
03:08PM 40.8700 -85.2978 222° Southwest 320 368 20,000  Level Chicago Center
03:09PM 40.7994 -85.3711 218° Southwest 320 368 20,000  Level Chicago Center
03:10PM 40.7294 -85.4422 218° Southwest 319 367 20,000 -60 Level Chicago Center
03:11PM 40.6592 -85.5136 218° Southwest 317 365 19,900 -1,140 Descending Chicago Center
03:13PM 40.5175 -85.6572 218° Southwest 322 371 16,600 -1,740 Descending Indianapolis Center
03:14PM 40.4431 -85.7336 218° Southwest 323 372 14,700 -2,040 Descending Chicago Center
03:15PM 40.3675 -85.8117 218° Southwest 310 357 12,300 -1,920 Descending Chicago Center
03:16PM 40.3139 -85.8653 217° Southwest 303 349 10,800 -1,620 Descending Indianapolis Center
03:17PM 40.2386 -85.9414 218° Southwest 291 335 9,200 -1,440 Descending Indianapolis Center
03:18PM 40.1808 -85.9992 217° Southwest 277 319 7,900 -1,320 Descending Indianapolis Center
03:19PM 40.1247 -86.0556 218° Southwest 265 305 6,500 -1,440 Descending Indianapolis Center
03:20PM 40.0672 -86.1136 218° Southwest 262 302 5,000 -1,260 Descending Indianapolis Center
03:21PM 40.0086 -86.1658 214° Southwest 260 299 4,000 -1,020 Descending Indianapolis Center
03:22PM 39.9525 -86.2131 213° Southwest 251 289 3,000 -720 Descending Indianapolis Center
03:23PM 39.8875 -86.2656 212° Southwest 240 276 2,600 -360 Descending Indianapolis Center
03:24PM 39.8506 -86.3269 232° Southwest 239 275 2,300 -300 Descending Indianapolis Center